Historyczne dane pomiarowe

Dodano dane terminowe – wersja testowa.

Dane z okresu 1951-2019

Wersja bazy: 1.34 [2019-03-16, lista zmian], aktualizacja planowana na 2019-04-15

Dane meteo z obszaru Polski uzyskane na podstawie danych udostępnionych przez Instytut Meteorologii i Gospodarki Wodnej – Państwowy Instytut Badawczy.

 

Wybierz Datę:    

       

TemperaturaWilgotnośćWiatrCiśnienieOpadyŚniegCzas trwania zjawisk
 Stacja t tx tn tng RH VA  wxwx mslp ppp RRR   cm mm wxwxwxwxwxwxwx
1999-08-14 13.6 16.3 9.9 6.6 75.8- 3.7 1.3---- 0.0------------
1999-08-13 14.2 18.2 10.9 7.7 77.5- 2.3 3.3---- 0.0------------
1999-08-12 14.3 18.8 12.2 11.5 75.8- 3.0 2.0---- 0.0------------
1999-08-11 17.6 20.7 15.1 13.6 90.0- 2.0 2.7---- 0.0------------
1999-08-10 19.7 26.0 15.9 11.1 81.5- 4.0 2.0---- 32.4------------
1999-08-09 22.9 27.6 18.7 15.4 64.0- 0.0 2.0---- 0.0------------
1999-08-08 21.6 25.7 17.5 12.5 78.0- 5.7 1.3---- 0.0------------
1999-08-07 20.8 25.8 16.3 10.5 59.0- 2.0 1.3---- 0.0------------
1999-08-06 18.1 22.5 14.8 8.7 78.5- 5.0 2.3---- 0.0------------
1999-08-05 18.4 22.6 14.3 7.1 63.0- 2.7 1.3---- 0.5------------
1999-08-04 17.0 21.3 12.3 5.1 67.8- 2.0 1.3---- 0.0------------
1999-08-03 16.3 21.6 12.0 7.6 77.0- 3.3 3.3---- 0.0------------
1999-08-02 16.7 20.7 13.3 7.7 71.3- 4.3 3.3---- 5.3------------
1999-08-01 16.6 21.7 12.8 7.6 68.8- 7.7 2.3---- 0.9------------
1999-07-31 16.9 23.0 11.4 5.1 59.8- 3.7 3.3---- 0.0------------
1999-07-30 16.1 22.0 11.3 6.4 72.8- 1.0 3.0---- 0.0------------
1999-07-29 15.6 21.3 10.9 7.1 75.0- 2.0 3.7---- 0.0------------
1999-07-28 16.5 21.2 13.4 9.9 81.0- 0.7 3.3---- 0.0------------
1999-07-27 17.2 22.0 14.4 12.3 92.5- 5.7 4.0---- 0.0------------
1999-07-26 19.9 25.1 15.3 10.5 71.8- 4.0 3.0---- 0.0------------
1999-07-25 17.8 21.5 11.9 7.2 69.0- 2.7 0.7---- 0.0------------
1999-07-24 15.0 19.1 11.4 8.0 88.0- 6.0 1.3---- 0.0------------
1999-07-23 12.9 17.3 11.0 8.9 91.3- 8.0 3.0---- 6.6------------
1999-07-22 18.3 22.2 16.4 15.7 76.3- 5.7 2.3---- 2.8------------
1999-07-21 20.9 25.1 16.9 13.2 69.5- 3.3 2.0---- 0.0------------
1999-07-20 22.3 26.3 18.0 10.9 55.8- 0.0 1.3---- 0.0------------
1999-07-19 20.0 24.6 15.4 9.2 60.5- 2.7 2.0---- 0.0------------
1999-07-18 18.0 22.0 13.3 6.2 63.0- 2.3 1.7---- 0.0------------
1999-07-17 15.2 18.3 9.9 5.1 79.5- 0.7 1.0---- 0.0------------
1999-07-16 14.2 18.0 11.7 8.9 82.0- 6.3 2.7---- 11.9------------
1999-07-15 15.2 18.8 12.9 13.0 85.3- 5.3 3.7---- 1.7------------
1999-07-14 18.3 23.3 15.4 14.5 89.0- 7.0 4.0---- 4.6------------
1999-07-13 19.0 23.2 16.1 12.5 90.3- 6.3 3.3---- 7.4------------
1999-07-12 19.2 24.6 15.3 13.1 75.0- 5.3 2.3---- 0.1------------
1999-07-11 18.2 22.7 13.4 11.6 64.3- 1.0 1.7---- 0.0------------
1999-07-10 17.7 21.6 13.9 13.7 82.3- 3.7 2.0---- 0.0------------
1999-07-09 18.1 20.7 15.7 16.1 95.3- 6.7 2.7---- 0.0------------
1999-07-08 17.1 19.5 15.5 14.4 98.5- 8.0 4.3---- 0.5------------
1999-07-07 20.0 23.5 18.2 16.2 89.3- 3.7 2.7---- 31.0------------
1999-07-06 22.8 28.2 18.2 12.4 77.5- 1.0 2.7---- 0.0------------
1999-07-05 23.2 28.3 17.7 9.4 69.0- 0.0 2.3---- 0.0------------
1999-07-04 20.5 26.3 15.1 8.8 80.8- 0.0 2.3---- 0.0------------
1999-07-03 19.2 23.2 14.9 10.1 81.0- 1.0 1.0---- 0.0------------
1999-07-02 18.6 23.1 15.1 13.9 81.5- 3.0 2.0---- 0.0------------
1999-07-01 19.3 22.6 15.0 8.5 64.3- 2.7 1.0---- 0.0------------
1999-06-30 18.3 23.2 14.2 9.1 69.0- 1.3 1.7---- 0.0------------
1999-06-29 17.4 22.2 13.6 12.3 83.5- 3.0 2.3---- 0.0------------
1999-06-28 19.3 25.5 13.4 8.4 75.0- 1.0 2.0---- 0.0------------
1999-06-27 17.4 23.0 11.8 8.5 63.5- 0.0 3.3---- 0.0------------
1999-06-26 14.0 20.2 8.3 4.1 76.5- 4.0 2.7---- 0.0------------
1999-06-25 11.5 14.8 8.4 8.6 86.5- 4.7 2.3---- 0.2------------
1999-06-24 8.9 10.4 7.7 8.0100.0- 8.0 3.3---- 8.7------------
1999-06-23 7.5 8.7 6.0 6.1 99.0- 8.0 8.7---- 18.5------------
1999-06-22 11.5 14.8 8.7 9.8100.0- 8.0 6.0---- 67.2------------
1999-06-21 15.8 20.7 13.6 11.0 90.3- 4.7 3.3---- 3.1------------
1999-06-20 16.4 19.4 12.7 13.5 90.3- 2.3 1.7---- 12.5------------
1999-06-19 15.9 21.2 12.3 10.7 94.5- 5.7 2.0---- 0.4------------
1999-06-18 16.2 17.8 14.9 15.1 98.8- 8.0 3.7---- 5.1------------
1999-06-17 17.3 19.8 15.0 15.3 97.5- 8.0 1.3---- 4.7------------
1999-06-16 16.8 20.1 13.9 13.6 98.5- 8.0 4.7---- 1.3------------
266.7 ms

 

Źródłem pochodzenia danych jest Instytut Meteorologii i Gospodarki Wodnej – Państwowy Instytut Badawczy. Dane Instytutu Meteorologii i Gospodarki Wodnej – Państwowego Instytutu Badawczego zostały przetworzone.

Dane źródłowe można odnaleźć na stronie https://dane.imgw.pl